Time;durP1;ratioP1;P1;durP2;ratioP2;P2;SDS_P1;SDS_P2;PMS_P1;PMS_P2;Temp;Humidity;BMP_temperature;BMP_pressure;BME280_temperature;BME280_humidity;BME280_pressure;Samples;Min_cycle;Max_cycle;Signal;HPM_P1;HPM_P2
2021/12/10 00:00:20;;;;;;;35.13;19.73;;;17.80;52.80;;;;;;4990106;28;20030;-62
2021/12/10 00:02:46;;;;;;;35.67;19.48;;;17.80;52.70;;;;;;5008563;28;20018;-62
2021/12/10 00:05:14;;;;;;;33.40;19.88;;;17.80;52.60;;;;;;5008854;28;20504;-62
2021/12/10 00:07:40;;;;;;;34.22;18.88;;;17.80;52.60;;;;;;5007985;28;20033;-62
2021/12/10 00:10:07;;;;;;;33.72;18.30;;;17.90;52.60;;;;;;5007001;28;20282;-62
2021/12/10 00:12:40;;;;;;;34.78;19.00;;;17.90;52.60;;;;;;4990176;28;20032;-62
2021/12/10 00:15:06;;;;;;;31.30;17.02;;;17.80;52.50;;;;;;5000744;28;20096;-62
2021/12/10 00:17:32;;;;;;;30.80;16.75;;;17.90;52.50;;;;;;4987705;28;20069;-62
2021/12/10 00:19:58;;;;;;;29.90;17.90;;;17.90;52.40;;;;;;5007952;28;20116;-62
2021/12/10 00:22:38;;;;;;;28.25;16.80;;;17.80;52.30;;;;;;5006212;28;20025;-63
2021/12/10 00:25:07;;;;;;;31.40;16.63;;;17.90;52.40;;;;;;5003407;28;20493;-62
2021/12/10 00:27:33;;;;;;;26.70;15.80;;;17.80;52.20;;;;;;5008406;28;20033;-62
2021/12/10 00:30:06;;;;;;;27.85;16.27;;;17.80;52.20;;;;;;5006279;28;20532;-62
2021/12/10 00:32:38;;;;;;;27.50;16.38;;;17.80;52.20;;;;;;5007938;28;20058;-62
2021/12/10 00:35:11;;;;;;;28.98;16.02;;;17.80;52.20;;;;;;5006730;28;20076;-62
2021/12/10 00:37:36;;;;;;;26.83;14.70;;;17.80;52.10;;;;;;5007650;28;20034;-62
2021/12/10 00:40:03;;;;;;;25.73;14.73;;;17.80;52.10;;;;;;5007270;28;20115;-63
2021/12/10 00:42:31;;;;;;;24.35;14.68;;;17.80;52.10;;;;;;5007138;28;20033;-62
2021/12/10 00:44:58;;;;;;;21.58;13.05;;;17.80;52.10;;;;;;5007898;28;20022;-63
2021/12/10 00:47:23;;;;;;;24.55;14.25;;;17.80;52.10;;;;;;5005975;28;20037;-62
2021/12/10 00:49:49;;;;;;;21.48;13.52;;;17.80;52.00;;;;;;5006034;28;20251;-62
2021/12/10 00:52:15;;;;;;;21.65;13.55;;;17.80;52.00;;;;;;5005882;28;20105;-62
2021/12/10 00:54:40;;;;;;;21.80;12.10;;;17.80;51.90;;;;;;5007221;28;20582;-62
2021/12/10 00:57:06;;;;;;;20.67;12.10;;;17.80;51.90;;;;;;5005592;28;20532;-62
2021/12/10 00:59:32;;;;;;;19.20;11.82;;;17.80;51.80;;;;;;4986578;28;20026;-62
2021/12/10 01:01:57;;;;;;;22.98;11.63;;;17.80;51.90;;;;;;5006030;28;20325;-63
2021/12/10 01:04:27;;;;;;;20.50;12.45;;;17.90;51.90;;;;;;5005658;28;20053;-62
2021/12/10 01:06:54;;;;;;;19.08;11.48;;;17.80;51.80;;;;;;5006308;28;20478;-62
2021/12/10 01:09:22;;;;;;;19.08;10.70;;;17.80;51.80;;;;;;5005911;28;20049;-62
2021/12/10 01:11:55;;;;;;;19.55;11.23;;;17.80;51.80;;;;;;5006725;28;20377;-62
2021/12/10 01:14:38;;;;;;;17.80;10.70;;;17.80;51.80;;;;;;5006022;28;20018;-62
2021/12/10 01:25:40;;;;;;;13.80;9.30;;;17.80;51.80;;;;;;5005190;28;20517;-62
2021/12/10 01:28:06;;;;;;;15.13;9.05;;;17.80;51.80;;;;;;5007043;28;20026;-62
2021/12/10 01:30:34;;;;;;;16.35;9.02;;;17.80;51.80;;;;;;5006092;28;20041;-62
2021/12/10 01:33:03;;;;;;;15.55;9.32;;;17.80;51.80;;;;;;5007038;28;20109;-62
2021/12/10 01:35:32;;;;;;;14.02;8.68;;;17.80;51.80;;;;;;5007253;28;20034;-63
2021/12/10 01:37:57;;;;;;;14.48;8.57;;;17.80;51.70;;;;;;5007307;28;20032;-63
2021/12/10 01:40:24;;;;;;;14.95;8.52;;;17.80;51.80;;;;;;5006246;28;20563;-62
2021/12/10 01:42:52;;;;;;;14.00;8.30;;;17.80;51.90;;;;;;5006279;28;20068;-63
2021/12/10 01:45:24;;;;;;;13.73;8.32;;;17.70;51.80;;;;;;5006075;28;20022;-62
2021/12/10 01:48:10;;;;;;;12.88;8.23;;;17.70;51.90;;;;;;4988411;28;20020;-62
2021/12/10 01:50:35;;;;;;;11.98;7.50;;;17.70;52.00;;;;;;4988685;28;20030;-61
2021/12/10 01:53:04;;;;;;;12.88;7.65;;;17.70;52.00;;;;;;5004280;28;20056;-62
2021/12/10 01:55:30;;;;;;;10.85;6.82;;;17.70;52.10;;;;;;4988604;28;20029;-62
2021/12/10 01:57:56;;;;;;;10.48;6.90;;;17.70;52.10;;;;;;5005558;28;20555;-62
2021/12/10 02:00:24;;;;;;;13.18;7.68;;;17.70;52.20;;;;;;5004115;28;20034;-62
2021/12/10 02:02:50;;;;;;;11.77;7.40;;;17.60;52.10;;;;;;5004900;28;20142;-62
2021/12/10 02:05:15;;;;;;;9.27;6.95;;;17.60;52.80;;;;;;5005589;28;20557;-62
2021/12/10 02:07:41;;;;;;;9.88;6.78;;;17.70;52.10;;;;;;5004361;28;20034;-62
2021/12/10 02:10:07;;;;;;;10.52;6.60;;;17.60;52.10;;;;;;5005493;28;20484;-62
2021/12/10 02:12:33;;;;;;;9.52;6.55;;;17.60;52.00;;;;;;5004471;28;20620;-62
2021/12/10 02:15:01;;;;;;;10.52;6.70;;;17.60;52.00;;;;;;5004276;28;20116;-62
2021/12/10 02:17:32;;;;;;;9.70;6.72;;;17.60;51.90;;;;;;5004020;28;20072;-62
2021/12/10 02:20:05;;;;;;;10.10;6.85;;;17.60;51.90;;;;;;4989007;28;20033;-62
2021/12/10 02:22:30;;;;;;;7.93;5.63;;;17.60;51.90;;;;;;4984649;28;20104;-62
2021/12/10 02:24:55;;;;;;;9.70;5.20;;;17.60;51.90;;;;;;5003020;28;20061;-62
2021/12/10 02:27:21;;;;;;;9.88;5.68;;;17.60;51.80;;;;;;4987599;28;20076;-62
2021/12/10 02:29:46;;;;;;;9.07;6.07;;;17.60;51.90;;;;;;5003836;28;20069;-62
2021/12/10 02:32:12;;;;;;;10.45;5.88;;;17.60;51.70;;;;;;4987802;28;20105;-62
2021/12/10 02:34:38;;;;;;;8.68;5.40;;;17.60;51.80;;;;;;5004322;28;20060;-62
2021/12/10 02:37:04;;;;;;;6.28;4.82;;;17.50;51.70;;;;;;5004473;28;20030;-62
2021/12/10 02:39:29;;;;;;;9.18;5.88;;;17.50;51.70;;;;;;5004344;28;20101;-62
2021/12/10 02:41:55;;;;;;;6.75;4.50;;;17.50;51.70;;;;;;5004896;28;20101;-62
2021/12/10 02:44:24;;;;;;;7.53;4.82;;;17.50;51.80;;;;;;5004525;28;20018;-62
2021/12/10 02:46:50;;;;;;;8.65;5.00;;;17.50;51.80;;;;;;5003857;28;20026;-62
2021/12/10 02:49:15;;;;;;;6.68;4.65;;;17.40;51.80;;;;;;5004256;28;20032;-61
2021/12/10 02:51:41;;;;;;;7.75;4.82;;;17.40;51.80;;;;;;5004558;28;20393;-62
2021/12/10 02:54:08;;;;;;;7.82;4.57;;;17.40;51.80;;;;;;5005483;28;20057;-62
2021/12/10 02:56:34;;;;;;;6.57;4.13;;;17.30;51.80;;;;;;5005756;28;20030;-62
2021/12/10 02:59:01;;;;;;;6.10;3.88;;;17.30;51.80;;;;;;5006009;28;20029;-62
2021/12/10 03:01:45;;;;;;;7.68;4.55;;;17.30;51.90;;;;;;5004188;28;20014;-62
2021/12/10 03:04:10;;;;;;;6.20;4.05;;;17.30;51.90;;;;;;5005276;28;20466;-62
2021/12/10 03:06:40;;;;;;;8.40;4.55;;;17.30;51.90;;;;;;5004652;28;20606;-62
2021/12/10 03:09:05;;;;;;;5.65;3.67;;;17.30;51.90;;;;;;5003545;28;20029;-62
2021/12/10 03:11:33;;;;;;;5.63;4.13;;;17.30;51.90;;;;;;4984342;28;20048;-62
2021/12/10 03:14:05;;;;;;;4.93;3.55;;;17.20;51.90;;;;;;5004248;28;20022;-62
2021/12/10 03:16:31;;;;;;;6.30;3.85;;;17.20;51.90;;;;;;4986507;28;20069;-62
2021/12/10 03:18:56;;;;;;;6.13;3.75;;;17.20;51.90;;;;;;5003869;28;20038;-63
2021/12/10 03:21:22;;;;;;;6.47;3.97;;;17.20;52.00;;;;;;4987904;28;20033;-62
2021/12/10 03:23:47;;;;;;;7.90;4.25;;;17.20;52.00;;;;;;4987215;28;20014;-62
2021/12/10 03:26:15;;;;;;;6.57;3.67;;;17.20;51.90;;;;;;5005648;28;20025;-62
2021/12/10 03:28:41;;;;;;;7.10;3.50;;;17.20;51.80;;;;;;5004664;28;20080;-62
2021/12/10 03:31:06;;;;;;;7.47;3.40;;;17.20;51.80;;;;;;4987219;28;20034;-62
2021/12/10 03:33:32;;;;;;;5.80;3.22;;;17.30;51.80;;;;;;4987901;28;20034;-62
2021/12/10 03:35:57;;;;;;;4.38;3.40;;;17.30;51.70;;;;;;5004315;28;20457;-62
2021/12/10 03:38:24;;;;;;;5.72;3.70;;;17.40;51.60;;;;;;5003340;28;20041;-62
2021/12/10 03:40:49;;;;;;;5.95;3.60;;;17.40;51.50;;;;;;5004769;28;20033;-62
2021/12/10 03:43:15;;;;;;;5.32;3.53;;;17.50;51.40;;;;;;5004870;28;20712;-62
2021/12/10 03:45:46;;;;;;;5.35;3.47;;;17.50;51.30;;;;;;5005181;28;20052;-62
2021/12/10 03:48:14;;;;;;;6.82;3.17;;;17.50;51.20;;;;;;5006077;28;20037;-62
2021/12/10 03:50:40;;;;;;;5.25;3.00;;;17.50;51.30;;;;;;5009417;28;20021;-63
2021/12/10 03:53:05;;;;;;;5.18;3.55;;;17.50;51.30;;;;;;5009301;28;20033;-62
2021/12/10 03:55:31;;;;;;;4.85;3.00;;;17.50;51.30;;;;;;5008196;28;20022;-61
2021/12/10 03:57:56;;;;;;;4.78;3.22;;;17.50;51.40;;;;;;5008813;28;20022;-62
2021/12/10 04:00:23;;;;;;;4.78;2.70;;;17.50;51.50;;;;;;5008472;28;20033;-62
2021/12/10 04:02:49;;;;;;;3.67;2.70;;;17.50;51.50;;;;;;5009654;28;20022;-62
2021/12/10 04:05:14;;;;;;;6.68;3.22;;;17.50;51.60;;;;;;5009341;28;20028;-62
2021/12/10 04:07:40;;;;;;;3.95;2.80;;;17.60;51.60;;;;;;5009002;28;20773;-62
2021/12/10 04:10:07;;;;;;;4.90;2.70;;;17.60;51.60;;;;;;5008610;28;20482;-62
2021/12/10 04:12:32;;;;;;;3.90;2.70;;;17.60;51.60;;;;;;5007825;28;20064;-62
2021/12/10 04:14:58;;;;;;;4.43;3.15;;;17.60;51.60;;;;;;5008492;28;20026;-61
2021/12/10 04:17:23;;;;;;;3.45;2.47;;;17.60;51.70;;;;;;5008169;28;21518;-62
2021/12/10 04:19:50;;;;;;;4.03;2.65;;;17.60;51.60;;;;;;5007908;28;20109;-62
2021/12/10 04:22:16;;;;;;;3.38;2.45;;;17.60;51.60;;;;;;5007989;28;20032;-62
2021/12/10 04:24:42;;;;;;;4.72;2.30;;;17.60;51.60;;;;;;5010351;28;20030;-62
2021/12/10 04:27:08;;;;;;;3.67;2.33;;;17.60;51.60;;;;;;5007868;28;20064;-62
2021/12/10 04:29:34;;;;;;;3.60;2.45;;;17.60;51.60;;;;;;5008135;28;20076;-62
2021/12/10 04:31:59;;;;;;;5.10;2.80;;;17.60;51.60;;;;;;5007335;28;20398;-62
2021/12/10 04:34:25;;;;;;;4.15;2.40;;;17.60;51.60;;;;;;5007970;28;20068;-62
2021/12/10 04:36:51;;;;;;;3.70;2.67;;;17.60;51.60;;;;;;5008487;28;20018;-62
2021/12/10 04:39:17;;;;;;;3.10;2.55;;;17.70;51.60;;;;;;5007720;28;20022;-62
2021/12/10 04:41:42;;;;;;;3.60;2.33;;;17.70;51.60;;;;;;5006243;28;20045;-62
2021/12/10 04:44:08;;;;;;;3.90;2.47;;;17.70;51.60;;;;;;5008001;28;20026;-62
2021/12/10 04:46:34;;;;;;;4.18;2.65;;;17.70;51.60;;;;;;5007617;28;20018;-62
2021/12/10 04:49:02;;;;;;;3.38;2.25;;;17.70;51.50;;;;;;5008090;28;20022;-62
2021/12/10 04:51:32;;;;;;;3.92;2.20;;;17.70;51.50;;;;;;5007710;28;20018;-62
2021/12/10 04:53:58;;;;;;;3.45;2.13;;;17.70;51.50;;;;;;5004802;28;20430;-62
2021/12/10 04:56:23;;;;;;;3.55;2.10;;;17.60;51.50;;;;;;5005647;28;20038;-62
2021/12/10 04:58:49;;;;;;;1.90;1.70;;;17.70;51.50;;;;;;5004153;28;20030;-62
2021/12/10 05:01:14;;;;;;;2.90;2.15;;;17.70;51.50;;;;;;5006453;28;20021;-62
2021/12/10 05:03:40;;;;;;;3.88;2.28;;;17.70;51.50;;;;;;5006529;28;20076;-62
2021/12/10 05:06:06;;;;;;;3.45;2.30;;;17.70;51.50;;;;;;5006541;28;20093;-62
2021/12/10 05:08:32;;;;;;;3.83;1.88;;;17.70;51.40;;;;;;5017558;22;20018;-72
2021/12/10 05:10:58;;;;;;;3.33;1.90;;;17.70;51.40;;;;;;4982457;28;20042;-73
2021/12/10 05:13:24;;;;;;;2.53;1.83;;;17.70;51.50;;;;;;4985969;28;20545;-73
2021/12/10 05:15:57;;;;;;;3.53;2.10;;;17.70;51.40;;;;;;4983432;28;20026;-73
2021/12/10 05:18:23;;;;;;;2.10;1.88;;;17.70;51.40;;;;;;4984453;28;20065;-73
2021/12/10 05:20:48;;;;;;;2.58;1.75;;;17.70;51.40;;;;;;4985013;28;20035;-73
2021/12/10 05:23:17;;;;;;;2.20;1.90;;;17.70;51.40;;;;;;4983798;28;20477;-71
2021/12/10 05:25:43;;;;;;;2.45;1.90;;;17.70;51.40;;;;;;5008798;23;20030;-62
2021/12/10 05:28:08;;;;;;;2.70;1.83;;;17.70;51.40;;;;;;5000748;28;20068;-64
2021/12/10 05:30:34;;;;;;;1.90;1.58;;;17.70;51.30;;;;;;5004090;28;20022;-64
2021/12/10 05:33:03;;;;;;;2.20;1.80;;;17.70;51.40;;;;;;5003340;28;20402;-63
2021/12/10 05:35:30;;;;;;;3.67;2.50;;;17.70;51.30;;;;;;5002847;28;20026;-63
2021/12/10 05:37:55;;;;;;;4.40;3.33;;;17.70;51.30;;;;;;5002933;28;20036;-64
2021/12/10 05:40:21;;;;;;;4.93;2.47;;;17.70;51.30;;;;;;5002055;28;20065;-62
2021/12/10 05:42:46;;;;;;;5.25;2.70;;;17.60;51.30;;;;;;5001617;28;20065;-63
2021/12/10 05:45:12;;;;;;;9.40;5.80;;;17.70;51.30;;;;;;5007009;28;20386;-63
2021/12/10 05:47:38;;;;;;;9.80;6.05;;;17.70;52.00;;;;;;5005938;28;20034;-65
2021/12/10 05:50:06;;;;;;;9.63;6.38;;;17.70;51.40;;;;;;5014028;28;20058;-63
2021/12/10 05:52:31;;;;;;;17.92;7.15;;;17.70;51.40;;;;;;5004085;28;20074;-63
2021/12/10 05:54:57;;;;;;;15.13;7.38;;;17.70;51.50;;;;;;4998472;28;20551;-63
2021/12/10 05:57:22;;;;;;;12.65;7.13;;;17.70;51.50;;;;;;5003039;28;20022;-64
2021/12/10 05:59:48;;;;;;;12.95;7.35;;;17.60;51.60;;;;;;5003316;28;20045;-64
2021/12/10 06:02:13;;;;;;;16.30;6.45;;;17.70;51.80;;;;;;5004017;28;20034;-64
2021/12/10 06:04:39;;;;;;;13.25;7.10;;;17.60;51.80;;;;;;5004037;28;20026;-63
2021/12/10 06:07:05;;;;;;;9.45;6.15;;;17.60;51.80;;;;;;5004209;28;20050;-64
2021/12/10 06:09:30;;;;;;;11.60;6.18;;;17.60;51.70;;;;;;5003627;28;20112;-64
2021/12/10 06:11:56;;;;;;;14.63;6.90;;;17.60;51.70;;;;;;5001871;28;20061;-64
2021/12/10 06:14:21;;;;;;;11.13;7.30;;;17.60;51.70;;;;;;5017928;28;20080;-63
2021/12/10 06:16:47;;;;;;;10.00;6.82;;;17.60;51.80;;;;;;5015492;28;20026;-63
2021/12/10 06:19:12;;;;;;;13.65;7.53;;;17.60;51.80;;;;;;5015522;28;20152;-63
2021/12/10 06:21:38;;;;;;;12.20;6.75;;;17.60;51.80;;;;;;5023737;28;20122;-64
2021/12/10 06:24:04;;;;;;;20.27;13.18;;;17.60;51.70;;;;;;5020785;28;20554;-64
2021/12/10 06:26:30;;;;;;;34.83;16.60;;;17.60;51.90;;;;;;5013426;28;20044;-64
2021/12/10 06:28:55;;;;;;;33.60;18.80;;;17.70;52.20;;;;;;5024384;28;20021;-67
2021/12/10 06:31:21;;;;;;;37.17;20.05;;;17.70;52.50;;;;;;5012263;28;20045;-67
2021/12/10 06:33:47;;;;;;;38.28;19.75;;;17.70;52.60;;;;;;5002220;28;20018;-66
2021/12/10 06:36:14;;;;;;;38.53;19.55;;;17.70;52.60;;;;;;5005855;28;20429;-66
2021/12/10 06:38:39;;;;;;;39.03;19.20;;;17.80;52.80;;;;;;5002576;28;20433;-65
2021/12/10 06:41:05;;;;;;;39.22;19.23;;;17.70;53.00;;;;;;5022956;28;20029;-66
2021/12/10 06:43:32;;;;;;;34.47;19.55;;;17.80;53.10;;;;;;4976106;28;20046;-67
2021/12/10 06:46:00;;;;;;;37.28;18.67;;;17.70;53.20;;;;;;4986385;28;20540;-67
2021/12/10 06:48:26;;;;;;;34.03;18.23;;;17.70;53.30;;;;;;5001531;28;20030;-65
2021/12/10 06:50:54;;;;;;;36.17;18.38;;;17.70;53.30;;;;;;4969543;28;20092;-66
2021/12/10 06:53:20;;;;;;;35.65;17.80;;;17.70;53.30;;;;;;5003363;28;20041;-66
2021/12/10 06:55:46;;;;;;;25.08;15.63;;;17.70;53.30;;;;;;4969288;28;20030;-67
2021/12/10 06:58:12;;;;;;;30.75;16.23;;;17.70;53.30;;;;;;4977445;28;20034;-66
2021/12/10 07:00:59;;;;;;;30.33;16.45;;;17.70;53.30;;;;;;5014130;28;20033;-66
2021/12/10 07:03:26;;;;;;;25.70;14.38;;;17.70;53.30;;;;;;5000298;28;20030;-66
2021/12/10 07:05:53;;;;;;;27.02;14.05;;;17.70;53.20;;;;;;4969360;28;20061;-67
2021/12/10 07:08:18;;;;;;;23.17;12.15;;;17.70;53.00;;;;;;5006580;28;20041;-66
2021/12/10 07:10:44;;;;;;;22.85;12.35;;;17.70;52.70;;;;;;5020119;28;20033;-67
2021/12/10 07:13:10;;;;;;;23.20;12.00;;;17.70;52.50;;;;;;5021119;28;20382;-66
2021/12/10 07:15:37;;;;;;;19.55;10.48;;;17.70;52.20;;;;;;5020755;28;20026;-66
2021/12/10 07:18:03;;;;;;;18.92;9.38;;;17.70;52.00;;;;;;5005151;28;20037;-67
2021/12/10 07:20:28;;;;;;;13.85;8.32;;;17.70;51.70;;;;;;5004446;28;20093;-66
2021/12/10 07:22:54;;;;;;;13.15;7.72;;;17.70;51.30;;;;;;5014771;28;20041;-66
2021/12/10 07:25:20;;;;;;;12.13;7.72;;;17.70;50.50;;;;;;4970176;28;20030;-66
2021/12/10 07:27:46;;;;;;;13.40;6.05;;;17.70;50.10;;;;;;5005770;28;20061;-67
2021/12/10 07:30:11;;;;;;;10.73;5.78;;;17.70;49.80;;;;;;4999960;28;20058;-66
2021/12/10 07:32:37;;;;;;;10.38;6.05;;;17.70;49.80;;;;;;4973080;28;20057;-67
2021/12/10 07:35:04;;;;;;;6.88;4.65;;;17.70;49.80;;;;;;5005091;28;20026;-67
2021/12/10 07:37:30;;;;;;;7.28;3.63;;;17.60;49.60;;;;;;4999426;28;20125;-67
2021/12/10 07:39:55;;;;;;;8.70;4.00;;;17.60;49.60;;;;;;4990623;28;20108;-66
2021/12/10 07:42:21;;;;;;;5.68;3.85;;;17.60;49.60;;;;;;5015905;28;20125;-67
2021/12/10 07:44:46;;;;;;;6.13;3.85;;;17.60;49.70;;;;;;5020906;28;20385;-67
2021/12/10 07:47:13;;;;;;;5.60;3.58;;;17.60;49.90;;;;;;5024826;28;20029;-67
2021/12/10 07:49:42;;;;;;;5.82;3.35;;;17.50;49.90;;;;;;5010375;28;20164;-67
2021/12/10 07:52:15;;;;;;;8.43;3.10;;;17.50;50.00;;;;;;4961987;28;20393;-67
2021/12/10 07:54:46;;;;;;;4.95;3.10;;;17.50;50.10;;;;;;4990513;28;20363;-67
2021/12/10 07:57:12;;;;;;;5.05;3.45;;;17.40;50.20;;;;;;5005691;28;20033;-67
2021/12/10 07:59:38;;;;;;;4.43;3.25;;;17.40;50.30;;;;;;4988134;28;20494;-67
2021/12/10 08:02:03;;;;;;;5.45;3.28;;;17.40;50.40;;;;;;4986960;28;20113;-67
2021/12/10 08:04:29;;;;;;;5.82;2.75;;;17.40;50.60;;;;;;4990462;28;20041;-68
2021/12/10 08:06:54;;;;;;;5.30;2.78;;;17.40;50.60;;;;;;5017803;28;20026;-68
2021/12/10 08:09:20;;;;;;;5.95;3.42;;;17.40;50.70;;;;;;4987286;28;20030;-67
2021/12/10 08:11:45;;;;;;;5.00;2.95;;;17.30;50.70;;;;;;4970265;28;20410;-67
2021/12/10 08:14:11;;;;;;;3.95;2.75;;;17.30;50.70;;;;;;5003956;28;20329;-67
2021/12/10 08:16:39;;;;;;;5.30;2.80;;;17.30;50.80;;;;;;4987787;28;20042;-67
2021/12/10 08:19:05;;;;;;;5.40;2.80;;;17.30;50.80;;;;;;5002856;28;20379;-67
2021/12/10 08:21:30;;;;;;;3.80;2.47;;;17.30;50.90;;;;;;5007323;28;20032;-67
2021/12/10 08:23:56;;;;;;;6.95;2.72;;;17.30;50.90;;;;;;5020160;28;20030;-67
2021/12/10 08:26:21;;;;;;;4.03;2.17;;;17.30;51.00;;;;;;4981525;28;20038;-66
2021/12/10 08:28:47;;;;;;;4.05;2.55;;;17.30;51.00;;;;;;5008193;28;20033;-67
2021/12/10 08:31:15;;;;;;;4.20;2.80;;;17.30;51.00;;;;;;4986600;28;20109;-67
2021/12/10 08:33:42;;;;;;;3.65;2.08;;;17.20;50.90;;;;;;4971179;28;20601;-67
2021/12/10 08:36:08;;;;;;;4.30;2.35;;;17.30;51.00;;;;;;4995490;28;20017;-67
2021/12/10 08:38:33;;;;;;;4.03;2.25;;;17.30;51.00;;;;;;4990078;28;20496;-66
2021/12/10 08:41:11;;;;;;;2.20;2.00;;;17.30;50.90;;;;;;5024688;28;20814;-66
2021/12/10 08:43:37;;;;;;;3.92;2.40;;;17.30;50.80;;;;;;5007490;28;20425;-67
2021/12/10 08:46:02;;;;;;;3.92;2.20;;;17.30;50.80;;;;;;5011771;28;20028;-67
2021/12/10 08:48:29;;;;;;;3.75;2.17;;;17.40;50.70;;;;;;5003702;28;20038;-67
2021/12/10 08:50:55;;;;;;;3.83;1.83;;;17.40;50.60;;;;;;4987225;28;20132;-67
2021/12/10 08:53:21;;;;;;;2.88;2.33;;;17.50;50.60;;;;;;5003509;28;20508;-67
2021/12/10 08:55:48;;;;;;;3.55;2.53;;;17.50;50.60;;;;;;4990553;28;20026;-67
2021/12/10 08:58:14;;;;;;;2.22;1.65;;;17.50;50.60;;;;;;4982783;28;20108;-68
2021/12/10 09:00:42;;;;;;;4.13;1.95;;;17.50;50.60;;;;;;5022624;28;20405;-66
2021/12/10 09:03:07;;;;;;;2.85;2.10;;;17.50;50.50;;;;;;4990247;28;20043;-68
2021/12/10 09:05:33;;;;;;;3.42;2.10;;;17.60;50.60;;;;;;5013543;28;20131;-67
2021/12/10 09:07:59;;;;;;;3.42;1.60;;;17.60;50.50;;;;;;4991929;28;20112;-68
2021/12/10 09:10:27;;;;;;;4.13;2.42;;;17.60;50.50;;;;;;5019941;28;20041;-68
2021/12/10 09:12:53;;;;;;;2.35;1.88;;;17.60;50.70;;;;;;5019564;28;20116;-67
2021/12/10 09:15:21;;;;;;;3.35;1.90;;;17.50;51.30;;;;;;5009687;28;20466;-67
2021/12/10 09:17:47;;;;;;;3.67;2.33;;;17.50;50.80;;;;;;5018754;28;20040;-67
2021/12/10 09:20:16;;;;;;;2.88;1.92;;;17.50;50.80;;;;;;5015348;28;20045;-66
2021/12/10 09:22:42;;;;;;;1.95;1.75;;;17.50;50.90;;;;;;5004583;28;20042;-67
2021/12/10 09:25:07;;;;;;;2.22;1.90;;;17.50;50.80;;;;;;5022255;28;20414;-67
2021/12/10 09:27:33;;;;;;;3.40;1.95;;;17.50;50.90;;;;;;5012747;28;20134;-66
2021/12/10 09:29:58;;;;;;;2.35;1.90;;;17.50;50.80;;;;;;5019822;28;20033;-67
2021/12/10 09:32:26;;;;;;;2.67;1.77;;;17.50;50.90;;;;;;5004031;28;20117;-67
2021/12/10 09:34:53;;;;;;;2.13;1.80;;;17.60;50.90;;;;;;5003472;28;20697;-66
2021/12/10 09:37:19;;;;;;;2.65;1.70;;;17.50;50.90;;;;;;5004644;28;20053;-67
2021/12/10 09:39:48;;;;;;;2.03;1.80;;;17.60;50.90;;;;;;5017799;28;20034;-67
2021/12/10 09:42:13;;;;;;;2.30;1.90;;;17.50;50.90;;;;;;5022797;28;20029;-67
2021/12/10 09:44:39;;;;;;;2.90;1.85;;;17.60;50.90;;;;;;5007150;28;20029;-67
2021/12/10 09:47:07;;;;;;;2.13;1.90;;;17.60;50.90;;;;;;5021025;28;20533;-67
2021/12/10 09:49:33;;;;;;;2.20;1.60;;;17.50;50.80;;;;;;5022345;28;20082;-67
2021/12/10 09:52:00;;;;;;;2.88;1.60;;;17.50;50.70;;;;;;5022161;28;20498;-67
2021/12/10 09:54:26;;;;;;;2.45;1.95;;;17.50;50.80;;;;;;5017506;28;20038;-67
2021/12/10 09:56:58;;;;;;;2.35;1.85;;;17.50;50.70;;;;;;5022569;28;20025;-67
2021/12/10 09:59:24;;;;;;;1.92;1.70;;;17.50;50.80;;;;;;5013016;28;20034;-67
2021/12/10 10:01:52;;;;;;;2.22;1.70;;;17.50;50.70;;;;;;5010731;28;20185;-67
2021/12/10 10:04:18;;;;;;;3.35;1.92;;;17.50;50.70;;;;;;5003948;28;20034;-67
2021/12/10 10:07:01;;;;;;;2.10;1.90;;;17.60;50.70;;;;;;5005978;28;20021;-67
2021/12/10 10:09:27;;;;;;;2.03;1.58;;;17.60;50.70;;;;;;5026341;28;20034;-67
2021/12/10 10:11:58;;;;;;;2.75;2.00;;;17.50;50.60;;;;;;5002164;28;20127;-67
2021/12/10 10:14:24;;;;;;;2.15;1.58;;;17.60;50.60;;;;;;5012865;28;20040;-67
2021/12/10 10:16:50;;;;;;;1.67;1.58;;;17.60;50.50;;;;;;5022650;28;20025;-67
2021/12/10 10:19:16;;;;;;;2.78;1.30;;;17.60;50.50;;;;;;5004601;28;20037;-67
2021/12/10 10:21:44;;;;;;;2.00;1.77;;;17.60;50.40;;;;;;5021637;28;20112;-67
2021/12/10 10:24:09;;;;;;;1.80;1.70;;;17.60;50.40;;;;;;5023564;28;20021;-67
2021/12/10 10:26:42;;;;;;;1.40;1.20;;;17.60;50.40;;;;;;5016879;28;20084;-67
2021/12/10 10:29:13;;;;;;;2.15;1.80;;;17.60;50.40;;;;;;5017049;28;20038;-66
2021/12/10 10:31:40;;;;;;;1.85;1.60;;;17.60;50.30;;;;;;5001859;28;20058;-67
2021/12/10 10:34:07;;;;;;;2.10;1.70;;;17.60;50.40;;;;;;5019183;28;20030;-67
2021/12/10 10:36:33;;;;;;;3.50;1.88;;;17.60;50.40;;;;;;5021993;28;20112;-67
2021/12/10 10:39:03;;;;;;;2.35;1.70;;;17.60;50.40;;;;;;5021333;28;20117;-66
2021/12/10 10:41:28;;;;;;;1.70;1.60;;;17.60;50.30;;;;;;5006037;28;20041;-67
2021/12/10 10:43:54;;;;;;;2.35;1.95;;;17.70;50.30;;;;;;5023275;28;20652;-66
2021/12/10 10:46:20;;;;;;;1.98;1.67;;;17.70;50.20;;;;;;5001343;28;20018;-67
2021/12/10 10:48:48;;;;;;;1.60;1.38;;;17.70;50.30;;;;;;5002445;28;20029;-67
2021/12/10 10:51:17;;;;;;;2.90;1.98;;;17.60;50.30;;;;;;5011666;28;20030;-67
2021/12/10 10:53:49;;;;;;;2.42;1.85;;;17.60;50.30;;;;;;5023543;28;20032;-67
2021/12/10 10:56:16;;;;;;;2.72;1.85;;;17.60;50.40;;;;;;5014637;28;20663;-66
2021/12/10 10:58:45;;;;;;;1.83;1.63;;;17.60;50.40;;;;;;5026104;28;20033;-65
2021/12/10 11:01:27;;;;;;;1.73;1.58;;;17.60;50.50;;;;;;4996350;28;20041;-66
2021/12/10 11:04:04;;;;;;;1.70;1.60;;;17.60;50.50;;;;;;5005657;28;20108;-67
2021/12/10 11:06:36;;;;;;;1.60;1.50;;;17.60;50.50;;;;;;5007160;28;20096;-67
2021/12/10 11:09:13;;;;;;;2.58;1.70;;;17.50;50.50;;;;;;5010109;28;20033;-67
2021/12/10 11:11:45;;;;;;;1.73;1.63;;;17.50;50.50;;;;;;5002580;23;20089;-59
2021/12/10 11:14:17;;;;;;;2.90;1.50;;;17.60;50.60;;;;;;5034518;28;20036;-52
2021/12/10 11:16:43;;;;;;;1.92;1.70;;;17.50;50.50;;;;;;5026948;28;20029;-52
2021/12/10 11:19:28;;;;;;;2.20;1.98;;;17.50;50.50;;;;;;5038523;28;20032;-50
2021/12/10 11:21:58;;;;;;;1.65;1.50;;;17.60;51.30;;;;;;5035531;28;20029;-51
2021/12/10 11:24:24;;;;;;;2.90;1.65;;;17.50;50.50;;;;;;5039251;28;20056;-57
2021/12/10 11:26:55;;;;;;;1.65;1.55;;;17.50;50.60;;;;;;5031524;28;20275;-50
2021/12/10 11:29:48;;;;;;;2.60;1.92;;;17.50;50.50;;;;;;5024273;28;20029;-55
2021/12/10 11:32:19;;;;;;;1.92;1.67;;;17.50;50.50;;;;;;5023999;28;20670;-52
2021/12/10 11:34:51;;;;;;;1.65;1.55;;;17.50;50.60;;;;;;5032146;28;20408;-52
2021/12/10 11:37:38;;;;;;;2.35;1.73;;;17.50;50.50;;;;;;5028541;28;20072;-58
2021/12/10 11:40:04;;;;;;;1.63;1.52;;;17.50;50.50;;;;;;5029767;28;20038;-53
2021/12/10 11:42:44;;;;;;;2.33;1.65;;;17.60;50.70;;;;;;5034219;28;20283;-55
2021/12/10 11:45:32;;;;;;;1.88;1.50;;;17.50;50.50;;;;;;5044845;28;20137;-56
2021/12/10 11:48:07;;;;;;;2.25;1.55;;;17.50;50.50;;;;;;5031940;28;20033;-57
2021/12/10 11:50:33;;;;;;;1.50;1.40;;;17.50;51.30;;;;;;5029805;28;20089;-60
2021/12/10 11:53:04;;;;;;;2.83;1.52;;;17.60;50.80;;;;;;5039561;28;20107;-58
2021/12/10 11:55:32;;;;;;;2.08;1.65;;;17.60;50.80;;;;;;5033536;28;20042;-58
2021/12/10 11:57:57;;;;;;;1.88;1.52;;;17.60;50.70;;;;;;5032772;28;20036;-59
2021/12/10 12:00:33;;;;;;;1.58;1.48;;;17.60;50.70;;;;;;5035309;28;20033;-57
2021/12/10 12:03:06;;;;;;;1.88;1.50;;;17.60;50.80;;;;;;5040553;28;20053;-51
2021/12/10 12:05:35;;;;;;;1.60;1.50;;;17.60;50.80;;;;;;5024259;28;20203;-50
2021/12/10 12:08:04;;;;;;;1.65;1.50;;;17.60;50.80;;;;;;5023937;28;20084;-55
2021/12/10 12:10:39;;;;;;;2.17;1.60;;;17.60;50.80;;;;;;5030645;28;20037;-52
2021/12/10 12:15:46;;;;;;;1.92;1.65;;;17.60;50.70;;;;;;5029344;28;20087;-61
2021/12/10 12:18:22;;;;;;;1.70;1.52;;;17.60;50.70;;;;;;5023119;28;20408;-54
2021/12/10 12:21:37;;;;;;;3.15;1.77;;;17.60;50.70;;;;;;5027200;28;20774;-54
2021/12/10 12:26:32;;;;;;;1.58;1.48;;;17.60;50.70;;;;;;5021908;28;20069;-54
2021/12/10 12:29:06;;;;;;;1.73;1.40;;;17.60;50.70;;;;;;5032162;28;20029;-58
2021/12/10 12:31:41;;;;;;;1.45;1.20;;;17.60;50.70;;;;;;5019449;28;20158;-59
2021/12/10 12:34:14;;;;;;;1.58;1.48;;;17.60;50.70;;;;;;5028461;28;20076;-52
2021/12/10 12:36:43;;;;;;;1.55;1.42;;;17.60;50.70;;;;;;5032267;28;20626;-53
2021/12/10 12:39:14;;;;;;;1.65;1.48;;;17.60;50.70;;;;;;5028413;28;20048;-56
2021/12/10 12:41:49;;;;;;;1.48;1.30;;;17.60;50.70;;;;;;5034182;28;20046;-51
2021/12/10 12:44:20;;;;;;;1.70;1.43;;;17.60;50.70;;;;;;5036885;28;20496;-51
2021/12/10 12:47:04;;;;;;;1.80;1.40;;;17.60;50.70;;;;;;5033250;28;20264;-53
2021/12/10 12:49:52;;;;;;;1.60;1.50;;;17.60;50.70;;;;;;5033759;28;20037;-57
2021/12/10 12:52:24;;;;;;;1.55;1.45;;;17.60;50.70;;;;;;5027103;28;20110;-56
2021/12/10 12:55:08;;;;;;;2.35;1.38;;;17.60;50.70;;;;;;5043307;28;20029;-58
2021/12/10 12:57:39;;;;;;;1.67;1.40;;;17.60;50.60;;;;;;5043700;28;20056;-51
2021/12/10 13:00:07;;;;;;;1.50;1.40;;;17.60;50.60;;;;;;5018846;28;20439;-50